sensor_id;sensor_type;location;lat;lon;timestamp;P1;durP1;ratioP1;P2;durP2;ratioP2
59974;SDS011;62136;-35.664;-63.766;2024-02-14T11:55:02;2.38;;;0.98;;
59974;SDS011;62136;-35.664;-63.766;2024-02-14T11:57:31;4.28;;;1.02;;
59974;SDS011;62136;-35.664;-63.766;2024-02-14T12:00:08;5.47;;;1.50;;
59974;SDS011;62136;-35.664;-63.766;2024-02-14T12:02:37;4.35;;;1.58;;
59974;SDS011;62136;-35.664;-63.766;2024-02-14T12:05:05;5.35;;;1.50;;
59974;SDS011;62136;-35.664;-63.766;2024-02-14T12:07:33;4.28;;;1.30;;
59974;SDS011;62136;-35.664;-63.766;2024-02-14T12:10:00;3.50;;;1.00;;
59974;SDS011;62136;-35.664;-63.766;2024-02-14T12:12:27;3.28;;;0.90;;
59974;SDS011;62136;-35.664;-63.766;2024-02-14T12:15:01;2.58;;;1.00;;
59974;SDS011;62136;-35.664;-63.766;2024-02-14T12:17:28;3.47;;;0.88;;
59974;SDS011;62136;-35.664;-63.766;2024-02-14T12:20:16;2.25;;;1.00;;
59974;SDS011;62136;-35.664;-63.766;2024-02-14T12:22:42;4.88;;;1.27;;
59974;SDS011;62136;-35.664;-63.766;2024-02-14T12:25:11;4.15;;;1.25;;
59974;SDS011;62136;-35.664;-63.766;2024-02-14T12:27:39;2.53;;;0.90;;
59974;SDS011;62136;-35.664;-63.766;2024-02-14T12:30:06;5.13;;;1.05;;
59974;SDS011;62136;-35.664;-63.766;2024-02-14T12:32:35;3.38;;;1.00;;
59974;SDS011;62136;-35.664;-63.766;2024-02-14T12:35:02;3.67;;;1.40;;
59974;SDS011;62136;-35.664;-63.766;2024-02-14T12:37:30;5.20;;;0.95;;
59974;SDS011;62136;-35.664;-63.766;2024-02-14T12:39:59;5.45;;;1.60;;
59974;SDS011;62136;-35.664;-63.766;2024-02-14T12:42:27;3.35;;;1.10;;
59974;SDS011;62136;-35.664;-63.766;2024-02-14T12:44:54;3.90;;;1.20;;
59974;SDS011;62136;-35.664;-63.766;2024-02-14T12:47:24;2.50;;;1.00;;
59974;SDS011;62136;-35.664;-63.766;2024-02-14T12:50:06;3.47;;;1.27;;
59974;SDS011;62136;-35.664;-63.766;2024-02-14T12:52:34;5.20;;;1.13;;
59974;SDS011;62136;-35.664;-63.766;2024-02-14T12:55:02;5.82;;;1.40;;
59974;SDS011;62136;-35.664;-63.766;2024-02-14T12:57:30;4.70;;;1.65;;
59974;SDS011;62136;-35.664;-63.766;2024-02-14T12:59:58;2.83;;;1.00;;
59974;SDS011;62136;-35.664;-63.766;2024-02-14T13:02:25;6.30;;;1.50;;
59974;SDS011;62136;-35.664;-63.766;2024-02-14T13:04:53;3.80;;;1.02;;
59974;SDS011;62136;-35.664;-63.766;2024-02-14T13:07:20;3.22;;;1.23;;
59974;SDS011;62136;-35.664;-63.766;2024-02-14T13:09:47;5.18;;;1.48;;
59974;SDS011;62136;-35.664;-63.766;2024-02-14T13:12:14;3.03;;;1.27;;
59974;SDS011;62136;-35.664;-63.766;2024-02-14T13:14:42;2.58;;;1.30;;
59974;SDS011;62136;-35.664;-63.766;2024-02-14T13:17:10;7.07;;;1.35;;
59974;SDS011;62136;-35.664;-63.766;2024-02-14T13:19:37;4.38;;;1.40;;
59974;SDS011;62136;-35.664;-63.766;2024-02-14T13:22:05;3.88;;;1.25;;
59974;SDS011;62136;-35.664;-63.766;2024-02-14T13:24:33;4.32;;;1.40;;
59974;SDS011;62136;-35.664;-63.766;2024-02-14T13:27:00;3.97;;;1.33;;
59974;SDS011;62136;-35.664;-63.766;2024-02-14T13:29:27;5.30;;;1.33;;
59974;SDS011;62136;-35.664;-63.766;2024-02-14T13:31:54;4.28;;;1.35;;
59974;SDS011;62136;-35.664;-63.766;2024-02-14T13:34:21;3.78;;;1.30;;
59974;SDS011;62136;-35.664;-63.766;2024-02-14T13:36:49;8.05;;;1.92;;
59974;SDS011;62136;-35.664;-63.766;2024-02-14T13:39:16;5.53;;;1.20;;
59974;SDS011;62136;-35.664;-63.766;2024-02-14T13:41:43;4.82;;;1.17;;
59974;SDS011;62136;-35.664;-63.766;2024-02-14T13:44:11;5.68;;;1.33;;
59974;SDS011;62136;-35.664;-63.766;2024-02-14T13:46:38;7.63;;;1.83;;
59974;SDS011;62136;-35.664;-63.766;2024-02-14T13:49:10;5.07;;;1.23;;
59974;SDS011;62136;-35.664;-63.766;2024-02-14T13:51:38;6.00;;;1.35;;
59974;SDS011;62136;-35.664;-63.766;2024-02-14T13:54:05;6.40;;;1.25;;
59974;SDS011;62136;-35.664;-63.766;2024-02-14T13:56:34;4.70;;;1.25;;
59974;SDS011;62136;-35.664;-63.766;2024-02-14T14:01:31;4.30;;;1.30;;
59974;SDS011;62136;-35.664;-63.766;2024-02-14T14:03:58;4.35;;;1.67;;
59974;SDS011;62136;-35.664;-63.766;2024-02-14T14:06:25;7.05;;;1.50;;
59974;SDS011;62136;-35.664;-63.766;2024-02-14T14:08:52;4.38;;;1.88;;
59974;SDS011;62136;-35.664;-63.766;2024-02-14T14:11:20;5.55;;;1.60;;
59974;SDS011;62136;-35.664;-63.766;2024-02-14T14:13:47;4.40;;;1.60;;
59974;SDS011;62136;-35.664;-63.766;2024-02-14T14:16:20;6.88;;;1.60;;
59974;SDS011;62136;-35.664;-63.766;2024-02-14T14:18:51;5.78;;;1.60;;
59974;SDS011;62136;-35.664;-63.766;2024-02-14T14:21:18;5.80;;;1.83;;
59974;SDS011;62136;-35.664;-63.766;2024-02-14T14:23:45;5.65;;;1.67;;
59974;SDS011;62136;-35.664;-63.766;2024-02-14T14:26:12;4.10;;;1.15;;
59974;SDS011;62136;-35.664;-63.766;2024-02-14T14:28:40;3.30;;;1.13;;
59974;SDS011;62136;-35.664;-63.766;2024-02-14T14:31:08;3.95;;;1.20;;
59974;SDS011;62136;-35.664;-63.766;2024-02-14T14:33:36;4.15;;;1.73;;
59974;SDS011;62136;-35.664;-63.766;2024-02-14T14:36:04;4.53;;;1.30;;
59974;SDS011;62136;-35.664;-63.766;2024-02-14T14:38:36;6.75;;;1.80;;
59974;SDS011;62136;-35.664;-63.766;2024-02-14T14:41:03;4.22;;;1.20;;
59974;SDS011;62136;-35.664;-63.766;2024-02-14T14:43:31;2.97;;;1.38;;
59974;SDS011;62136;-35.664;-63.766;2024-02-14T14:45:59;3.97;;;1.58;;
59974;SDS011;62136;-35.664;-63.766;2024-02-14T14:48:28;3.45;;;1.10;;
59974;SDS011;62136;-35.664;-63.766;2024-02-14T14:50:55;3.38;;;1.48;;
59974;SDS011;62136;-35.664;-63.766;2024-02-14T14:53:22;2.95;;;1.25;;
59974;SDS011;62136;-35.664;-63.766;2024-02-14T14:55:51;5.65;;;1.48;;
59974;SDS011;62136;-35.664;-63.766;2024-02-14T14:58:21;5.20;;;1.52;;
59974;SDS011;62136;-35.664;-63.766;2024-02-14T15:00:52;5.45;;;1.65;;
59974;SDS011;62136;-35.664;-63.766;2024-02-14T15:03:26;3.80;;;1.52;;
59974;SDS011;62136;-35.664;-63.766;2024-02-14T15:05:53;4.82;;;1.67;;
59974;SDS011;62136;-35.664;-63.766;2024-02-14T15:08:20;4.55;;;1.58;;
59974;SDS011;62136;-35.664;-63.766;2024-02-14T15:10:56;7.10;;;1.58;;
59974;SDS011;62136;-35.664;-63.766;2024-02-14T15:13:24;3.67;;;1.45;;
59974;SDS011;62136;-35.664;-63.766;2024-02-14T15:15:51;3.53;;;1.08;;
59974;SDS011;62136;-35.664;-63.766;2024-02-14T15:18:18;2.55;;;1.50;;
59974;SDS011;62136;-35.664;-63.766;2024-02-14T15:20:46;4.93;;;1.33;;
59974;SDS011;62136;-35.664;-63.766;2024-02-14T15:23:13;3.45;;;1.13;;
59974;SDS011;62136;-35.664;-63.766;2024-02-14T15:25:40;3.72;;;1.30;;
59974;SDS011;62136;-35.664;-63.766;2024-02-14T15:28:08;4.55;;;1.25;;
59974;SDS011;62136;-35.664;-63.766;2024-02-14T15:30:51;3.42;;;1.30;;
59974;SDS011;62136;-35.664;-63.766;2024-02-14T15:33:37;3.67;;;1.42;;
59974;SDS011;62136;-35.664;-63.766;2024-02-14T15:36:04;2.92;;;1.42;;
59974;SDS011;62136;-35.664;-63.766;2024-02-14T15:38:31;4.28;;;1.48;;
59974;SDS011;62136;-35.664;-63.766;2024-02-14T15:40:58;3.50;;;1.20;;
59974;SDS011;62136;-35.664;-63.766;2024-02-14T15:43:30;2.42;;;1.27;;
59974;SDS011;62136;-35.664;-63.766;2024-02-14T15:45:59;3.83;;;1.38;;
59974;SDS011;62136;-35.664;-63.766;2024-02-14T15:48:26;4.10;;;1.50;;
59974;SDS011;62136;-35.664;-63.766;2024-02-14T15:50:55;4.22;;;1.30;;
59974;SDS011;62136;-35.664;-63.766;2024-02-14T15:53:23;3.38;;;1.20;;
59974;SDS011;62136;-35.664;-63.766;2024-02-14T15:55:52;2.97;;;0.90;;
59974;SDS011;62136;-35.664;-63.766;2024-02-14T15:58:19;3.25;;;1.20;;
59974;SDS011;62136;-35.664;-63.766;2024-02-14T16:00:47;2.60;;;1.13;;
59974;SDS011;62136;-35.664;-63.766;2024-02-14T16:03:16;3.13;;;1.00;;
59974;SDS011;62136;-35.664;-63.766;2024-02-14T16:05:46;3.65;;;1.40;;
59974;SDS011;62136;-35.664;-63.766;2024-02-14T16:08:14;3.72;;;1.67;;
59974;SDS011;62136;-35.664;-63.766;2024-02-14T16:10:42;2.17;;;1.20;;
59974;SDS011;62136;-35.664;-63.766;2024-02-14T16:13:10;2.90;;;1.25;;
59974;SDS011;62136;-35.664;-63.766;2024-02-14T16:15:37;2.25;;;1.02;;
59974;SDS011;62136;-35.664;-63.766;2024-02-14T16:18:04;4.13;;;1.33;;
59974;SDS011;62136;-35.664;-63.766;2024-02-14T16:20:31;3.65;;;1.08;;
59974;SDS011;62136;-35.664;-63.766;2024-02-14T16:22:58;1.60;;;1.05;;
59974;SDS011;62136;-35.664;-63.766;2024-02-14T16:25:25;4.65;;;1.20;;
59974;SDS011;62136;-35.664;-63.766;2024-02-14T16:27:55;2.95;;;1.20;;
59974;SDS011;62136;-35.664;-63.766;2024-02-14T16:30:23;2.95;;;1.00;;
59974;SDS011;62136;-35.664;-63.766;2024-02-14T16:32:50;3.00;;;1.00;;
59974;SDS011;62136;-35.664;-63.766;2024-02-14T16:35:16;2.13;;;1.00;;
59974;SDS011;62136;-35.664;-63.766;2024-02-14T16:37:46;2.88;;;0.98;;
59974;SDS011;62136;-35.664;-63.766;2024-02-14T16:40:17;3.22;;;1.30;;
59974;SDS011;62136;-35.664;-63.766;2024-02-14T16:42:44;2.17;;;1.00;;
59974;SDS011;62136;-35.664;-63.766;2024-02-14T16:45:11;2.38;;;1.02;;
59974;SDS011;62136;-35.664;-63.766;2024-02-14T16:47:38;1.67;;;1.08;;
59974;SDS011;62136;-35.664;-63.766;2024-02-14T16:50:06;1.95;;;1.00;;
59974;SDS011;62136;-35.664;-63.766;2024-02-14T16:52:33;1.90;;;1.00;;
59974;SDS011;62136;-35.664;-63.766;2024-02-14T16:55:01;1.25;;;1.00;;
59974;SDS011;62136;-35.664;-63.766;2024-02-14T16:57:29;1.83;;;1.02;;
59974;SDS011;62136;-35.664;-63.766;2024-02-14T16:59:56;3.47;;;1.15;;
59974;SDS011;62136;-35.664;-63.766;2024-02-14T17:02:23;2.85;;;1.00;;
59974;SDS011;62136;-35.664;-63.766;2024-02-14T17:04:50;1.77;;;0.90;;
59974;SDS011;62136;-35.664;-63.766;2024-02-14T17:07:17;2.38;;;1.08;;
59974;SDS011;62136;-35.664;-63.766;2024-02-14T17:09:44;1.75;;;0.90;;
59974;SDS011;62136;-35.664;-63.766;2024-02-14T17:12:12;2.50;;;1.20;;
59974;SDS011;62136;-35.664;-63.766;2024-02-14T17:14:39;2.95;;;1.10;;
59974;SDS011;62136;-35.664;-63.766;2024-02-14T17:17:06;2.33;;;0.90;;
59974;SDS011;62136;-35.664;-63.766;2024-02-14T17:19:33;1.33;;;0.73;;
59974;SDS011;62136;-35.664;-63.766;2024-02-14T17:22:00;3.13;;;1.00;;
59974;SDS011;62136;-35.664;-63.766;2024-02-14T17:24:30;1.98;;;1.20;;
59974;SDS011;62136;-35.664;-63.766;2024-02-14T17:26:57;3.70;;;1.33;;
59974;SDS011;62136;-35.664;-63.766;2024-02-14T17:29:25;4.28;;;0.98;;
59974;SDS011;62136;-35.664;-63.766;2024-02-14T17:31:52;2.13;;;1.15;;
59974;SDS011;62136;-35.664;-63.766;2024-02-14T17:34:19;2.17;;;0.88;;
59974;SDS011;62136;-35.664;-63.766;2024-02-14T17:36:46;2.67;;;1.17;;
59974;SDS011;62136;-35.664;-63.766;2024-02-14T17:39:13;3.03;;;0.93;;
59974;SDS011;62136;-35.664;-63.766;2024-02-14T17:41:41;2.33;;;1.00;;
59974;SDS011;62136;-35.664;-63.766;2024-02-14T17:44:08;5.75;;;2.13;;
59974;SDS011;62136;-35.664;-63.766;2024-02-14T17:46:35;6.60;;;2.40;;
59974;SDS011;62136;-35.664;-63.766;2024-02-14T17:49:02;4.47;;;1.98;;
59974;SDS011;62136;-35.664;-63.766;2024-02-14T17:51:35;8.45;;;2.60;;
59974;SDS011;62136;-35.664;-63.766;2024-02-14T17:54:03;7.53;;;2.35;;
59974;SDS011;62136;-35.664;-63.766;2024-02-14T17:56:33;5.20;;;2.25;;
59974;SDS011;62136;-35.664;-63.766;2024-02-14T17:59:00;6.75;;;2.08;;
59974;SDS011;62136;-35.664;-63.766;2024-02-14T18:01:27;12.55;;;2.50;;
59974;SDS011;62136;-35.664;-63.766;2024-02-14T18:03:54;7.15;;;2.05;;
59974;SDS011;62136;-35.664;-63.766;2024-02-14T18:06:21;8.50;;;2.45;;
59974;SDS011;62136;-35.664;-63.766;2024-02-14T18:08:48;7.85;;;2.08;;
59974;SDS011;62136;-35.664;-63.766;2024-02-14T18:11:15;7.05;;;2.10;;
59974;SDS011;62136;-35.664;-63.766;2024-02-14T18:13:43;8.70;;;2.00;;
59974;SDS011;62136;-35.664;-63.766;2024-02-14T18:16:11;7.90;;;1.92;;
59974;SDS011;62136;-35.664;-63.766;2024-02-14T18:18:39;10.82;;;2.72;;
59974;SDS011;62136;-35.664;-63.766;2024-02-14T18:21:08;5.90;;;1.88;;
59974;SDS011;62136;-35.664;-63.766;2024-02-14T18:23:35;8.68;;;2.10;;
59974;SDS011;62136;-35.664;-63.766;2024-02-14T18:26:03;7.20;;;1.88;;
59974;SDS011;62136;-35.664;-63.766;2024-02-14T18:28:31;7.15;;;2.00;;
59974;SDS011;62136;-35.664;-63.766;2024-02-14T18:30:59;10.02;;;2.30;;
59974;SDS011;62136;-35.664;-63.766;2024-02-14T18:33:35;8.60;;;2.17;;
59974;SDS011;62136;-35.664;-63.766;2024-02-14T18:36:04;7.50;;;1.95;;
59974;SDS011;62136;-35.664;-63.766;2024-02-14T18:38:31;8.23;;;2.45;;
59974;SDS011;62136;-35.664;-63.766;2024-02-14T18:40:58;7.15;;;2.22;;
59974;SDS011;62136;-35.664;-63.766;2024-02-14T18:43:26;11.52;;;2.20;;
59974;SDS011;62136;-35.664;-63.766;2024-02-14T18:45:54;6.28;;;1.90;;
59974;SDS011;62136;-35.664;-63.766;2024-02-14T18:48:21;7.32;;;2.13;;
59974;SDS011;62136;-35.664;-63.766;2024-02-14T18:50:49;6.70;;;1.85;;
59974;SDS011;62136;-35.664;-63.766;2024-02-14T18:53:16;7.45;;;2.08;;
59974;SDS011;62136;-35.664;-63.766;2024-02-14T18:55:43;7.88;;;1.92;;
59974;SDS011;62136;-35.664;-63.766;2024-02-14T18:58:11;9.18;;;2.00;;
59974;SDS011;62136;-35.664;-63.766;2024-02-14T19:00:39;9.00;;;2.38;;
59974;SDS011;62136;-35.664;-63.766;2024-02-14T19:03:08;6.20;;;2.35;;
59974;SDS011;62136;-35.664;-63.766;2024-02-14T19:05:39;8.95;;;2.47;;
59974;SDS011;62136;-35.664;-63.766;2024-02-14T19:08:10;8.40;;;2.20;;
59974;SDS011;62136;-35.664;-63.766;2024-02-14T19:10:39;7.10;;;2.17;;
59974;SDS011;62136;-35.664;-63.766;2024-02-14T19:13:07;4.65;;;1.60;;
59974;SDS011;62136;-35.664;-63.766;2024-02-14T19:15:38;4.80;;;1.90;;
59974;SDS011;62136;-35.664;-63.766;2024-02-14T19:18:06;9.65;;;2.65;;
59974;SDS011;62136;-35.664;-63.766;2024-02-14T19:20:33;11.20;;;2.38;;
59974;SDS011;62136;-35.664;-63.766;2024-02-14T19:23:00;10.52;;;2.40;;
59974;SDS011;62136;-35.664;-63.766;2024-02-14T19:25:31;19.92;;;2.45;;
59974;SDS011;62136;-35.664;-63.766;2024-02-14T19:27:59;9.82;;;2.72;;
59974;SDS011;62136;-35.664;-63.766;2024-02-14T19:30:27;10.18;;;2.28;;
59974;SDS011;62136;-35.664;-63.766;2024-02-14T19:32:54;10.45;;;2.53;;
59974;SDS011;62136;-35.664;-63.766;2024-02-14T19:35:21;7.35;;;2.47;;
59974;SDS011;62136;-35.664;-63.766;2024-02-14T19:37:48;6.95;;;2.42;;
59974;SDS011;62136;-35.664;-63.766;2024-02-14T19:40:15;7.50;;;2.25;;
59974;SDS011;62136;-35.664;-63.766;2024-02-14T19:42:43;10.18;;;2.40;;
59974;SDS011;62136;-35.664;-63.766;2024-02-14T19:45:10;7.65;;;2.70;;
59974;SDS011;62136;-35.664;-63.766;2024-02-14T19:47:39;5.40;;;2.17;;
59974;SDS011;62136;-35.664;-63.766;2024-02-14T19:50:06;9.95;;;2.17;;
59974;SDS011;62136;-35.664;-63.766;2024-02-14T19:52:35;6.63;;;2.50;;
59974;SDS011;62136;-35.664;-63.766;2024-02-14T19:55:02;11.52;;;2.40;;
59974;SDS011;62136;-35.664;-63.766;2024-02-14T19:57:30;9.30;;;2.17;;
59974;SDS011;62136;-35.664;-63.766;2024-02-14T19:59:57;4.50;;;2.17;;
59974;SDS011;62136;-35.664;-63.766;2024-02-14T20:02:26;10.55;;;2.47;;
59974;SDS011;62136;-35.664;-63.766;2024-02-14T20:04:53;7.53;;;2.22;;
59974;SDS011;62136;-35.664;-63.766;2024-02-14T20:07:21;11.77;;;2.90;;
59974;SDS011;62136;-35.664;-63.766;2024-02-14T20:09:49;11.32;;;2.53;;
59974;SDS011;62136;-35.664;-63.766;2024-02-14T20:12:16;6.07;;;2.53;;
59974;SDS011;62136;-35.664;-63.766;2024-02-14T20:14:44;11.38;;;2.30;;
59974;SDS011;62136;-35.664;-63.766;2024-02-14T20:17:11;5.28;;;2.10;;
59974;SDS011;62136;-35.664;-63.766;2024-02-14T20:19:39;7.78;;;3.25;;
59974;SDS011;62136;-35.664;-63.766;2024-02-14T20:22:07;12.32;;;3.55;;
59974;SDS011;62136;-35.664;-63.766;2024-02-14T20:24:35;12.00;;;3.60;;
59974;SDS011;62136;-35.664;-63.766;2024-02-14T20:27:16;9.27;;;3.70;;
59974;SDS011;62136;-35.664;-63.766;2024-02-14T20:29:43;8.05;;;2.95;;
59974;SDS011;62136;-35.664;-63.766;2024-02-14T20:32:10;10.88;;;3.40;;
59974;SDS011;62136;-35.664;-63.766;2024-02-14T20:34:37;9.95;;;3.35;;
59974;SDS011;62136;-35.664;-63.766;2024-02-14T20:37:04;10.15;;;2.83;;
59974;SDS011;62136;-35.664;-63.766;2024-02-14T20:39:33;7.72;;;2.92;;
59974;SDS011;62136;-35.664;-63.766;2024-02-14T20:42:01;10.13;;;2.90;;
59974;SDS011;62136;-35.664;-63.766;2024-02-14T20:44:29;10.43;;;2.85;;
59974;SDS011;62136;-35.664;-63.766;2024-02-14T20:46:56;5.57;;;2.10;;
59974;SDS011;62136;-35.664;-63.766;2024-02-14T20:49:24;10.02;;;3.03;;
59974;SDS011;62136;-35.664;-63.766;2024-02-14T20:51:55;8.45;;;2.60;;
59974;SDS011;62136;-35.664;-63.766;2024-02-14T20:54:22;10.73;;;2.75;;
59974;SDS011;62136;-35.664;-63.766;2024-02-14T20:56:49;8.40;;;2.20;;
59974;SDS011;62136;-35.664;-63.766;2024-02-14T20:59:16;10.25;;;2.13;;
59974;SDS011;62136;-35.664;-63.766;2024-02-14T21:01:43;6.70;;;2.17;;
59974;SDS011;62136;-35.664;-63.766;2024-02-14T21:04:10;8.32;;;1.95;;
59974;SDS011;62136;-35.664;-63.766;2024-02-14T21:06:37;6.90;;;2.13;;
59974;SDS011;62136;-35.664;-63.766;2024-02-14T21:09:04;5.75;;;2.00;;
59974;SDS011;62136;-35.664;-63.766;2024-02-14T21:11:31;4.15;;;1.80;;
59974;SDS011;62136;-35.664;-63.766;2024-02-14T21:13:58;4.72;;;1.70;;
59974;SDS011;62136;-35.664;-63.766;2024-02-14T21:16:25;6.72;;;2.17;;
59974;SDS011;62136;-35.664;-63.766;2024-02-14T21:18:52;11.60;;;2.80;;
59974;SDS011;62136;-35.664;-63.766;2024-02-14T21:21:20;4.72;;;1.92;;
59974;SDS011;62136;-35.664;-63.766;2024-02-14T21:23:47;7.88;;;1.85;;
59974;SDS011;62136;-35.664;-63.766;2024-02-14T21:26:15;7.25;;;1.80;;
59974;SDS011;62136;-35.664;-63.766;2024-02-14T21:28:42;6.15;;;2.20;;
59974;SDS011;62136;-35.664;-63.766;2024-02-14T21:31:09;8.90;;;2.28;;
59974;SDS011;62136;-35.664;-63.766;2024-02-14T21:33:37;7.03;;;2.33;;
59974;SDS011;62136;-35.664;-63.766;2024-02-14T21:36:05;5.65;;;2.25;;
59974;SDS011;62136;-35.664;-63.766;2024-02-14T21:38:32;8.93;;;2.45;;
59974;SDS011;62136;-35.664;-63.766;2024-02-14T21:40:59;4.95;;;2.10;;
59974;SDS011;62136;-35.664;-63.766;2024-02-14T21:43:26;6.40;;;1.88;;
59974;SDS011;62136;-35.664;-63.766;2024-02-14T21:45:53;5.50;;;1.90;;
59974;SDS011;62136;-35.664;-63.766;2024-02-14T21:48:22;5.13;;;1.85;;
59974;SDS011;62136;-35.664;-63.766;2024-02-14T21:50:49;4.80;;;2.05;;
59974;SDS011;62136;-35.664;-63.766;2024-02-14T21:53:18;6.20;;;1.95;;
59974;SDS011;62136;-35.664;-63.766;2024-02-14T21:55:48;6.82;;;2.15;;
59974;SDS011;62136;-35.664;-63.766;2024-02-14T21:58:15;7.63;;;2.50;;
59974;SDS011;62136;-35.664;-63.766;2024-02-14T22:00:42;9.00;;;2.50;;
59974;SDS011;62136;-35.664;-63.766;2024-02-14T22:03:10;6.65;;;2.25;;
59974;SDS011;62136;-35.664;-63.766;2024-02-14T22:05:37;4.50;;;1.90;;
59974;SDS011;62136;-35.664;-63.766;2024-02-14T22:08:05;5.57;;;2.47;;
59974;SDS011;62136;-35.664;-63.766;2024-02-14T22:10:33;4.72;;;1.85;;
59974;SDS011;62136;-35.664;-63.766;2024-02-14T22:13:00;7.18;;;2.45;;
59974;SDS011;62136;-35.664;-63.766;2024-02-14T22:15:28;6.30;;;2.60;;
59974;SDS011;62136;-35.664;-63.766;2024-02-14T22:17:55;3.58;;;2.05;;
59974;SDS011;62136;-35.664;-63.766;2024-02-14T22:20:22;4.13;;;2.08;;
59974;SDS011;62136;-35.664;-63.766;2024-02-14T22:22:49;7.07;;;2.20;;
59974;SDS011;62136;-35.664;-63.766;2024-02-14T22:25:16;5.10;;;2.47;;
59974;SDS011;62136;-35.664;-63.766;2024-02-14T22:27:45;4.18;;;1.95;;
59974;SDS011;62136;-35.664;-63.766;2024-02-14T22:30:13;5.65;;;2.00;;
59974;SDS011;62136;-35.664;-63.766;2024-02-14T22:32:40;5.28;;;2.15;;
59974;SDS011;62136;-35.664;-63.766;2024-02-14T22:35:07;5.30;;;2.10;;
59974;SDS011;62136;-35.664;-63.766;2024-02-14T22:37:34;5.07;;;2.20;;
59974;SDS011;62136;-35.664;-63.766;2024-02-14T22:40:01;8.55;;;2.70;;
59974;SDS011;62136;-35.664;-63.766;2024-02-14T22:42:30;3.90;;;1.70;;
59974;SDS011;62136;-35.664;-63.766;2024-02-14T22:45:00;8.50;;;2.42;;
59974;SDS011;62136;-35.664;-63.766;2024-02-14T22:47:27;5.45;;;2.42;;
59974;SDS011;62136;-35.664;-63.766;2024-02-14T22:49:55;5.53;;;2.00;;
59974;SDS011;62136;-35.664;-63.766;2024-02-14T22:52:22;5.10;;;2.10;;
59974;SDS011;62136;-35.664;-63.766;2024-02-14T22:54:55;3.97;;;2.53;;
59974;SDS011;62136;-35.664;-63.766;2024-02-14T22:57:23;5.43;;;2.20;;
59974;SDS011;62136;-35.664;-63.766;2024-02-14T22:59:50;6.57;;;2.10;;
59974;SDS011;62136;-35.664;-63.766;2024-02-14T23:02:17;7.55;;;2.50;;
59974;SDS011;62136;-35.664;-63.766;2024-02-14T23:04:44;4.63;;;2.20;;
59974;SDS011;62136;-35.664;-63.766;2024-02-14T23:07:11;3.70;;;1.90;;
59974;SDS011;62136;-35.664;-63.766;2024-02-14T23:09:38;3.70;;;1.85;;
59974;SDS011;62136;-35.664;-63.766;2024-02-14T23:12:11;4.30;;;2.00;;
59974;SDS011;62136;-35.664;-63.766;2024-02-14T23:14:39;4.67;;;1.97;;
59974;SDS011;62136;-35.664;-63.766;2024-02-14T23:17:06;4.53;;;1.95;;
59974;SDS011;62136;-35.664;-63.766;2024-02-14T23:19:33;5.40;;;2.00;;
59974;SDS011;62136;-35.664;-63.766;2024-02-14T23:22:00;4.57;;;2.03;;
59974;SDS011;62136;-35.664;-63.766;2024-02-14T23:24:27;5.07;;;2.00;;
59974;SDS011;62136;-35.664;-63.766;2024-02-14T23:26:55;3.55;;;1.63;;
59974;SDS011;62136;-35.664;-63.766;2024-02-14T23:29:23;2.67;;;1.60;;
59974;SDS011;62136;-35.664;-63.766;2024-02-14T23:31:50;6.95;;;2.22;;
59974;SDS011;62136;-35.664;-63.766;2024-02-14T23:34:17;4.00;;;1.90;;
59974;SDS011;62136;-35.664;-63.766;2024-02-14T23:36:44;5.50;;;2.15;;
59974;SDS011;62136;-35.664;-63.766;2024-02-14T23:39:11;4.05;;;2.13;;
59974;SDS011;62136;-35.664;-63.766;2024-02-14T23:41:38;4.55;;;2.35;;
59974;SDS011;62136;-35.664;-63.766;2024-02-14T23:44:06;6.43;;;2.42;;
59974;SDS011;62136;-35.664;-63.766;2024-02-14T23:46:34;5.38;;;1.88;;
59974;SDS011;62136;-35.664;-63.766;2024-02-14T23:49:02;4.95;;;1.70;;
59974;SDS011;62136;-35.664;-63.766;2024-02-14T23:51:29;6.03;;;2.13;;
59974;SDS011;62136;-35.664;-63.766;2024-02-14T23:53:58;4.88;;;1.90;;
59974;SDS011;62136;-35.664;-63.766;2024-02-14T23:56:25;4.40;;;2.28;;
59974;SDS011;62136;-35.664;-63.766;2024-02-14T23:58:52;4.72;;;1.90;;
